Time,TemperatureF,DewpointF,PressureIn,WindDirection,WindDirectionDegrees,WindSpeedMPH,WindSpeedGustMPH,Humidity,HourlyPrecipIn,Conditions,Clouds,dailyrainin,SoftwareType,DateUTC
2013-09-12 00:12:00,-999.9,-99.9,29.76,WSW,257,0.0,0.0,81,0.00,,,0.00,Wunderground v.1.15,2013-09-12 04:12:00,
2013-09-12 00:42:00,-999.9,-99.9,29.75,WSW,257,0.0,0.0,83,0.00,,,0.00,Wunderground v.1.15,2013-09-12 04:42:00,
2013-09-12 01:12:00,-999.9,-99.9,29.74,WSW,257,0.0,0.0,87,0.00,,,0.00,Wunderground v.1.15,2013-09-12 05:12:00,
2013-09-12 01:42:00,-999.9,-99.9,29.73,WSW,257,0.0,0.0,88,0.00,,,0.00,Wunderground v.1.15,2013-09-12 05:42:00,
2013-09-12 02:12:00,-999.9,-99.9,29.73,WSW,257,0.0,0.0,89,0.00,,,0.00,Wunderground v.1.15,2013-09-12 06:12:00,
2013-09-12 02:42:00,-999.9,-99.9,29.72,WSW,257,0.0,0.0,90,0.00,,,0.00,Wunderground v.1.15,2013-09-12 06:42:00,
2013-09-12 03:12:00,-999.9,-99.9,29.72,WSW,257,0.0,0.0,92,0.00,,,0.00,Wunderground v.1.15,2013-09-12 07:12:00,
2013-09-12 03:42:00,-999.9,-99.9,29.72,WSW,257,0.0,0.0,92,0.00,,,0.00,Wunderground v.1.15,2013-09-12 07:42:00,
2013-09-12 04:12:00,-999.9,-99.9,29.71,WSW,256,0.0,0.0,92,0.00,,,0.00,Wunderground v.1.15,2013-09-12 08:12:00,
2013-09-12 04:42:00,-999.9,-99.9,29.71,WSW,256,0.0,0.0,93,0.00,,,0.00,Wunderground v.1.15,2013-09-12 08:42:00,
2013-09-12 05:12:00,-999.9,-99.9,29.71,WSW,257,0.0,0.0,94,0.00,,,0.00,Wunderground v.1.15,2013-09-12 09:12:00,
2013-09-12 05:42:00,-999.9,-99.9,29.70,WSW,257,0.0,0.0,92,0.00,,,0.00,Wunderground v.1.15,2013-09-12 09:42:00,
2013-09-12 06:12:00,-999.9,-99.9,29.70,WSW,257,0.0,0.0,94,0.00,,,0.00,Wunderground v.1.15,2013-09-12 10:12:00,
2013-09-12 06:42:00,74.6,72.8,29.70,WSW,257,0.0,0.0,94,0.00,,,0.00,Wunderground v.1.15,2013-09-12 10:42:00,
2013-09-12 07:12:00,-999.9,-99.9,29.71,WSW,257,0.0,0.0,93,0.00,,,0.00,Wunderground v.1.15,2013-09-12 11:12:00,
2013-09-12 07:42:00,-999.9,-99.9,29.70,WSW,246,0.0,0.0,92,0.00,,,0.00,Wunderground v.1.15,2013-09-12 11:42:00,
2013-09-12 08:12:00,-999.9,-99.9,29.69,SW,215,0.0,0.0,89,0.00,,,0.00,Wunderground v.1.15,2013-09-12 12:12:00,
2013-09-12 08:42:00,-999.9,-99.9,29.69,SSE,168,2.0,3.0,87,0.00,,,0.00,Wunderground v.1.15,2013-09-12 12:42:00,
2013-09-12 09:12:00,-999.9,-99.9,29.68,West,267,3.0,5.0,86,0.00,,,0.00,Wunderground v.1.15,2013-09-12 13:12:00,
2013-09-12 09:42:00,-999.9,-99.9,29.67,West,266,2.0,5.0,83,0.00,,,0.00,Wunderground v.1.15,2013-09-12 13:42:00,
2013-09-12 10:12:00,-999.9,-99.9,29.66,WNW,286,2.0,4.0,82,0.00,,,0.00,Wunderground v.1.15,2013-09-12 14:12:00,
2013-09-12 10:42:00,-999.9,-99.9,29.66,SW,218,2.0,2.0,81,0.00,,,0.00,Wunderground v.1.15,2013-09-12 14:42:00,
2013-09-12 11:12:00,-999.9,-99.9,29.64,East,101,3.0,3.0,78,0.00,,,0.00,Wunderground v.1.15,2013-09-12 15:12:00,
2013-09-12 11:42:00,-999.9,-99.9,29.63,SSW,209,1.0,1.0,72,0.00,,,0.00,Wunderground v.1.15,2013-09-12 15:42:00,
2013-09-12 12:12:00,-999.9,-99.9,29.61,South,190,3.0,3.0,70,0.00,,,0.00,Wunderground v.1.15,2013-09-12 16:12:00,
2013-09-12 12:42:00,-999.9,-99.9,29.60,SSE,150,3.0,3.0,68,0.00,,,0.00,Wunderground v.1.15,2013-09-12 16:42:00,
2013-09-12 13:12:00,74.2,69.7,29.62,West,270,3.0,3.0,86,0.09,,,0.04,Wunderground v.1.15,2013-09-12 17:12:00,
2013-09-12 13:42:00,71.5,69.4,29.61,West,271,0.0,0.0,93,0.00,,,0.04,Wunderground v.1.15,2013-09-12 17:42:00,
2013-09-12 14:12:00,72.2,70.4,29.59,West,271,0.0,0.0,94,0.00,,,0.04,Wunderground v.1.15,2013-09-12 18:12:00,
2013-09-12 14:42:00,-999.9,-99.9,29.58,WSW,247,1.0,1.0,89,0.00,,,0.04,Wunderground v.1.15,2013-09-12 18:42:00,
2013-09-12 15:12:00,-999.9,-99.9,29.56,West,268,2.0,2.0,84,0.00,,,0.04,Wunderground v.1.15,2013-09-12 19:12:00,
2013-09-12 15:42:00,-999.9,-99.9,29.53,SW,215,0.0,0.0,85,0.00,,,0.04,Wunderground v.1.15,2013-09-12 19:42:00,
2013-09-12 16:12:00,-999.9,-99.9,29.51,West,265,1.0,2.0,79,0.00,,,0.04,Wunderground v.1.15,2013-09-12 20:12:00,
2013-09-12 16:42:00,-999.9,-99.9,29.51,WSW,248,0.0,0.0,79,0.00,,,0.04,Wunderground v.1.15,2013-09-12 20:42:00,
2013-09-12 17:12:00,-999.9,-99.9,29.49,WSW,248,0.0,0.0,78,0.00,,,0.04,Wunderground v.1.15,2013-09-12 21:12:00,
2013-09-12 17:42:00,-999.9,-99.9,29.48,WSW,248,0.0,0.0,81,0.00,,,0.04,Wunderground v.1.15,2013-09-12 21:42:00,
2013-09-12 18:12:00,-999.9,-99.9,29.49,SSW,204,0.0,0.0,77,0.00,,,0.04,Wunderground v.1.15,2013-09-12 22:12:00,